Time;durP1;ratioP1;P1;durP2;ratioP2;P2;SDS_P1;SDS_P2;PMS_P1;PMS_P2;Temp;Humidity;BMP_temperature;BMP_pressure;BME280_temperature;BME280_humidity;BME280_pressure;Samples;Min_cycle;Max_cycle;Signal;HPM_P1;HPM_P2
2022/06/25 00:01:51;;;;;;;0.47;0.38;;;;;;;;;;5037116;28;20617;-81
2022/06/25 00:07:01;;;;;;;0.80;0.30;;;;;;;;;;5038390;28;20044;-80
2022/06/25 00:09:27;;;;;;;0.73;0.43;;;;;;;;;;5020487;28;20393;-79
2022/06/25 00:14:37;;;;;;;2.17;0.30;;;;;;;;;;5019663;28;20441;-82
2022/06/25 00:17:03;;;;;;;0.70;0.30;;;;;;;;;;5020353;28;20037;-81
2022/06/25 00:19:29;;;;;;;0.80;0.22;;;;;;;;;;5038010;28;20045;-80
2022/06/25 00:21:55;;;;;;;0.73;0.30;;;;;;;;;;5038299;28;20108;-81
2022/06/25 00:24:20;;;;;;;0.77;0.32;;;;;;;;;;5036991;28;20116;-81
2022/06/25 00:26:46;;;;;;;0.50;0.40;;;;;;;;;;5038318;28;20028;-81
2022/06/25 00:29:11;;;;;;;1.67;0.40;;;;;;;;;;5019811;28;20033;-80
2022/06/25 00:31:37;;;;;;;0.32;0.32;;;;;;;;;;5037289;28;20041;-81
2022/06/25 00:34:03;;;;;;;2.00;0.20;;;;;;;;;;5019899;28;20042;-81
2022/06/25 00:36:29;;;;;;;1.63;0.30;;;;;;;;;;5019506;28;20036;-81
2022/06/25 00:38:54;;;;;;;1.02;0.30;;;;;;;;;;5004836;28;20124;-81
2022/06/25 00:41:20;;;;;;;4.88;0.47;;;;;;;;;;5020102;28;20701;-81
2022/06/25 00:43:46;;;;;;;0.73;0.35;;;;;;;;;;5037811;28;20033;-81
2022/06/25 00:46:11;;;;;;;1.55;0.35;;;;;;;;;;5002681;28;20041;-81
2022/06/25 00:48:37;;;;;;;1.27;0.40;;;;;;;;;;5019871;28;20551;-81
2022/06/25 00:51:14;;;;;;;0.30;0.30;;;;;;;;;;5019392;28;20063;-81
2022/06/25 00:53:42;;;;;;;1.48;0.38;;;;;;;;;;5020645;28;20037;-81
2022/06/25 00:56:09;;;;;;;0.40;0.30;;;;;;;;;;5036867;28;20060;-81
2022/06/25 00:58:40;;;;;;;1.88;0.30;;;;;;;;;;5003010;28;20565;-80
2022/06/25 01:01:08;;;;;;;1.35;0.40;;;;;;;;;;5037026;28;20128;-81
2022/06/25 01:03:37;;;;;;;0.95;0.40;;;;;;;;;;5019256;28;20497;-80
2022/06/25 01:06:03;;;;;;;2.28;0.35;;;;;;;;;;5036665;28;20041;-80
2022/06/25 01:08:30;;;;;;;1.98;0.30;;;;;;;;;;5036784;28;20129;-79
2022/06/25 01:10:56;;;;;;;0.47;0.20;;;;;;;;;;5019106;28;20514;-79
2022/06/25 01:13:22;;;;;;;0.73;0.35;;;;;;;;;;5018338;28;20030;-81
2022/06/25 01:15:49;;;;;;;1.48;0.30;;;;;;;;;;5018373;28;20029;-80
2022/06/25 01:18:15;;;;;;;0.73;0.30;;;;;;;;;;5018819;28;20037;-81
2022/06/25 01:20:44;;;;;;;1.17;0.40;;;;;;;;;;5019035;28;20033;-81
2022/06/25 01:23:13;;;;;;;0.63;0.30;;;;;;;;;;5036784;28;20037;-80
2022/06/25 01:25:41;;;;;;;2.10;0.40;;;;;;;;;;5017260;28;20029;-82
2022/06/25 01:28:07;;;;;;;2.80;0.22;;;;;;;;;;5035811;28;20108;-82
2022/06/25 01:30:34;;;;;;;2.00;0.30;;;;;;;;;;5017897;28;20033;-81
2022/06/25 01:33:06;;;;;;;1.58;0.30;;;;;;;;;;5035105;28;20502;-81
2022/06/25 01:35:32;;;;;;;0.20;0.20;;;;;;;;;;5017374;28;20037;-81
2022/06/25 01:38:00;;;;;;;1.60;0.30;;;;;;;;;;5017895;28;20402;-81
2022/06/25 01:40:31;;;;;;;1.08;0.40;;;;;;;;;;5018666;28;20044;-81
2022/06/25 01:43:00;;;;;;;0.20;0.20;;;;;;;;;;5018235;28;20033;-81
2022/06/25 01:45:28;;;;;;;0.35;0.20;;;;;;;;;;5018100;28;20033;-81
2022/06/25 01:47:54;;;;;;;1.27;0.30;;;;;;;;;;5019210;28;20026;-81
2022/06/25 01:50:20;;;;;;;1.60;0.55;;;;;;;;;;5018805;28;20033;-81
2022/06/25 01:52:46;;;;;;;1.40;0.57;;;;;;;;;;5018118;28;20513;-81
2022/06/25 01:55:13;;;;;;;0.30;0.20;;;;;;;;;;5035981;28;20114;-81
2022/06/25 01:57:40;;;;;;;1.63;0.20;;;;;;;;;;5018624;28;20044;-81
2022/06/25 02:00:10;;;;;;;0.57;0.40;;;;;;;;;;5018453;28;20041;-81
2022/06/25 02:02:47;;;;;;;0.68;0.40;;;;;;;;;;5018647;28;20122;-81
2022/06/25 02:05:15;;;;;;;1.45;0.30;;;;;;;;;;5017847;28;20029;-81
2022/06/25 02:07:41;;;;;;;1.65;0.30;;;;;;;;;;5018769;28;20017;-81
2022/06/25 02:10:07;;;;;;;2.13;0.60;;;;;;;;;;5018262;28;20105;-81
2022/06/25 02:12:33;;;;;;;0.98;0.50;;;;;;;;;;5035956;28;20038;-81
2022/06/25 02:14:59;;;;;;;1.85;0.50;;;;;;;;;;5017213;28;20034;-80
2022/06/25 02:17:25;;;;;;;2.35;0.30;;;;;;;;;;5018473;28;20107;-81
2022/06/25 02:19:50;;;;;;;0.50;0.30;;;;;;;;;;5035730;28;20629;-81
2022/06/25 02:22:16;;;;;;;0.52;0.30;;;;;;;;;;5035896;28;20037;-81
2022/06/25 02:24:43;;;;;;;0.40;0.40;;;;;;;;;;5035738;28;20048;-81
2022/06/25 02:27:09;;;;;;;0.73;0.30;;;;;;;;;;5021724;28;20094;-81
2022/06/25 02:29:35;;;;;;;0.55;0.30;;;;;;;;;;5004913;28;20484;-81
2022/06/25 02:32:02;;;;;;;0.80;0.30;;;;;;;;;;5004719;28;20033;-81
2022/06/25 02:34:28;;;;;;;2.47;0.30;;;;;;;;;;5039411;28;20041;-80
2022/06/25 02:36:54;;;;;;;1.45;0.35;;;;;;;;;;5039700;28;20029;-81
2022/06/25 02:39:21;;;;;;;0.95;0.40;;;;;;;;;;5022018;28;20021;-81
2022/06/25 02:41:47;;;;;;;0.82;0.43;;;;;;;;;;5022059;28;20087;-81
2022/06/25 02:44:13;;;;;;;0.28;0.25;;;;;;;;;;5021905;28;20430;-80
2022/06/25 02:46:51;;;;;;;1.75;0.40;;;;;;;;;;5007349;28;20030;-82
2022/06/25 02:49:19;;;;;;;1.15;0.30;;;;;;;;;;5005780;28;20486;-80
2022/06/25 02:51:45;;;;;;;0.88;0.20;;;;;;;;;;5039510;28;20144;-82
2022/06/25 02:54:11;;;;;;;0.90;0.20;;;;;;;;;;5019324;28;20525;-82
2022/06/25 02:59:21;;;;;;;0.75;0.25;;;;;;;;;;5021242;28;20458;-82
2022/06/25 03:01:49;;;;;;;0.30;0.30;;;;;;;;;;5021840;28;20187;-81
2022/06/25 03:04:17;;;;;;;2.05;0.38;;;;;;;;;;5021037;28;20045;-81
2022/06/25 03:06:46;;;;;;;0.43;0.28;;;;;;;;;;5021412;28;20041;-81
2022/06/25 03:09:12;;;;;;;0.63;0.30;;;;;;;;;;5021759;28;20093;-82
2022/06/25 03:11:38;;;;;;;2.85;0.38;;;;;;;;;;5021101;28;20056;-82
2022/06/25 03:14:03;;;;;;;0.38;0.38;;;;;;;;;;5021070;28;20041;-82
2022/06/25 03:16:31;;;;;;;0.43;0.35;;;;;;;;;;5019456;28;20033;-81
2022/06/25 03:18:58;;;;;;;1.90;0.40;;;;;;;;;;5003769;28;20417;-82
2022/06/25 03:21:46;;;;;;;0.63;0.63;;;;;;;;;;5036787;28;20124;-82
2022/06/25 03:24:13;;;;;;;1.70;0.50;;;;;;;;;;5019258;28;20029;-81
2022/06/25 03:26:39;;;;;;;2.25;0.40;;;;;;;;;;5020062;28;20029;-81
2022/06/25 03:29:05;;;;;;;0.50;0.30;;;;;;;;;;5037662;28;20113;-82
2022/06/25 03:31:33;;;;;;;2.67;0.40;;;;;;;;;;5021086;28;20041;-81
2022/06/25 03:34:05;;;;;;;0.40;0.40;;;;;;;;;;5020734;28;20033;-81
2022/06/25 03:36:50;;;;;;;0.30;0.30;;;;;;;;;;5023663;28;20489;-81
2022/06/25 03:39:17;;;;;;;1.63;0.38;;;;;;;;;;5020813;28;20063;-81
2022/06/25 03:41:42;;;;;;;0.65;0.40;;;;;;;;;;5021054;28;20033;-81
2022/06/25 03:44:28;;;;;;;0.30;0.20;;;;;;;;;;5021744;28;20493;-81
2022/06/25 03:47:01;;;;;;;;;;;;;;;;;;5021614;28;20517;-80
2022/06/25 03:49:29;;;;;;;1.23;0.47;;;;;;;;;;5005145;28;19936;-80
2022/06/25 03:51:57;;;;;;;0.63;0.50;;;;;;;;;;5020942;28;20188;-80
2022/06/25 03:54:23;;;;;;;0.32;0.32;;;;;;;;;;5037646;28;20025;-81
2022/06/25 03:56:49;;;;;;;3.15;0.98;;;;;;;;;;5038499;28;20550;-81
2022/06/25 03:59:16;;;;;;;1.65;0.43;;;;;;;;;;5020361;28;20126;-80
2022/06/25 04:01:43;;;;;;;0.40;0.40;;;;;;;;;;5020800;28;20405;-81
2022/06/25 04:04:10;;;;;;;1.90;1.25;;;;;;;;;;5019616;28;20092;-80
2022/06/25 04:06:36;;;;;;;2.95;1.00;;;;;;;;;;5020134;28;20060;-81
2022/06/25 04:09:03;;;;;;;0.93;0.40;;;;;;;;;;5020697;28;20025;-81
2022/06/25 04:11:31;;;;;;;1.33;0.60;;;;;;;;;;5038074;28;20423;-79
2022/06/25 04:13:58;;;;;;;1.13;0.60;;;;;;;;;;5020027;28;20064;-80
2022/06/25 04:16:24;;;;;;;2.95;0.60;;;;;;;;;;5019686;28;20502;-81
2022/06/25 04:18:51;;;;;;;1.48;0.80;;;;;;;;;;5020485;28;20033;-81
2022/06/25 04:21:20;;;;;;;2.13;0.90;;;;;;;;;;5004071;28;20107;-81
2022/06/25 04:23:46;;;;;;;1.50;0.90;;;;;;;;;;5020065;28;20038;-81
2022/06/25 04:26:14;;;;;;;1.52;1.00;;;;;;;;;;5019475;28;20485;-81
2022/06/25 04:31:53;;;;;;;0.95;0.80;;;;;;;;;;5033060;28;20393;-81
2022/06/25 04:34:39;;;;;;;1.50;0.70;;;;;;;;;;5036795;28;20525;-81
2022/06/25 04:37:04;;;;;;;0.90;0.50;;;;;;;;;;5019920;28;20029;-80
2022/06/25 04:39:31;;;;;;;2.55;0.70;;;;;;;;;;5003928;28;20033;-81
2022/06/25 04:41:57;;;;;;;0.93;0.50;;;;;;;;;;5019869;28;20042;-81
2022/06/25 04:44:26;;;;;;;6.00;3.25;;;;;;;;;;5018706;28;20557;-80
2022/06/25 04:46:54;;;;;;;11.73;6.60;;;;;;;;;;5019057;28;20040;-80
2022/06/25 04:49:27;;;;;;;2.47;1.02;;;;;;;;;;5019453;28;20033;-80
2022/06/25 04:51:53;;;;;;;1.05;0.60;;;;;;;;;;5019730;28;20446;-81
2022/06/25 04:54:18;;;;;;;1.65;0.55;;;;;;;;;;5018771;28;20041;-80
2022/06/25 04:56:50;;;;;;;1.23;0.45;;;;;;;;;;5019644;28;20065;-80
2022/06/25 04:59:18;;;;;;;0.70;0.50;;;;;;;;;;5019760;28;20037;-81
2022/06/25 05:01:58;;;;;;;3.97;0.80;;;;;;;;;;5019870;28;20041;-82
2022/06/25 05:04:40;;;;;;;2.17;1.08;;;;;;;;;;5018917;28;20029;-81
2022/06/25 05:07:06;;;;;;;1.88;1.08;;;;;;;;;;5018564;28;20037;-82
2022/06/25 05:09:32;;;;;;;2.60;1.38;;;;;;;;;;5018690;28;20033;-82
2022/06/25 05:11:58;;;;;;;1.10;0.70;;;;;;;;;;5018467;28;20035;-82
2022/06/25 05:14:24;;;;;;;0.95;0.50;;;;;;;;;;5001762;28;20037;-81
2022/06/25 05:16:50;;;;;;;0.68;0.68;;;;;;;;;;5018846;28;20033;-81
2022/06/25 05:19:16;;;;;;;2.58;0.98;;;;;;;;;;5019359;28;20033;-81
2022/06/25 05:21:43;;;;;;;1.13;0.70;;;;;;;;;;5019419;28;20034;-81
2022/06/25 05:24:09;;;;;;;0.73;0.60;;;;;;;;;;5017705;28;20038;-80
2022/06/25 05:26:35;;;;;;;0.43;0.40;;;;;;;;;;5036242;28;20418;-80
2022/06/25 05:29:01;;;;;;;0.80;0.45;;;;;;;;;;5018920;28;20457;-80
2022/06/25 05:31:26;;;;;;;3.03;1.10;;;;;;;;;;5019057;28;20041;-80
2022/06/25 05:33:53;;;;;;;0.80;0.70;;;;;;;;;;5018750;28;20037;-80
2022/06/25 05:36:18;;;;;;;2.88;1.00;;;;;;;;;;5018437;28;20037;-81
2022/06/25 05:38:44;;;;;;;2.35;0.70;;;;;;;;;;5018844;28;20041;-81
2022/06/25 05:41:10;;;;;;;1.02;0.60;;;;;;;;;;5018857;28;20517;-80
2022/06/25 05:43:39;;;;;;;1.77;0.70;;;;;;;;;;5037095;28;20033;-81
2022/06/25 05:46:05;;;;;;;1.85;0.45;;;;;;;;;;5035977;28;20033;-81
2022/06/25 05:48:31;;;;;;;1.40;0.43;;;;;;;;;;5018981;28;20030;-80
2022/06/25 05:50:57;;;;;;;6.68;2.83;;;;;;;;;;5036288;28;20033;-81
2022/06/25 05:53:24;;;;;;;2.53;1.05;;;;;;;;;;5036730;28;20037;-82
2022/06/25 05:55:49;;;;;;;1.10;0.65;;;;;;;;;;5017783;28;20041;-81
2022/06/25 05:58:15;;;;;;;1.85;0.52;;;;;;;;;;5018476;28;20398;-81
2022/06/25 06:00:41;;;;;;;0.90;0.50;;;;;;;;;;5035613;28;20041;-81
2022/06/25 06:03:06;;;;;;;2.20;0.73;;;;;;;;;;5036141;28;20485;-81
2022/06/25 06:05:32;;;;;;;1.83;0.60;;;;;;;;;;5035615;28;20037;-81
2022/06/25 06:07:58;;;;;;;0.40;0.40;;;;;;;;;;5037400;28;20037;-81
2022/06/25 06:10:24;;;;;;;1.30;0.40;;;;;;;;;;5037624;28;20037;-81
2022/06/25 06:12:49;;;;;;;1.50;0.50;;;;;;;;;;5037191;28;20029;-81
2022/06/25 06:15:15;;;;;;;2.22;0.55;;;;;;;;;;5036854;28;20029;-81
2022/06/25 06:17:41;;;;;;;0.82;0.50;;;;;;;;;;5037486;28;20033;-81
2022/06/25 06:20:07;;;;;;;1.20;0.45;;;;;;;;;;5037123;28;20030;-81
2022/06/25 06:22:33;;;;;;;2.75;0.60;;;;;;;;;;5019302;28;20041;-80
2022/06/25 06:24:58;;;;;;;3.03;0.50;;;;;;;;;;5036045;28;20038;-81
2022/06/25 06:27:24;;;;;;;0.40;0.40;;;;;;;;;;5036170;28;20116;-81
2022/06/25 06:29:50;;;;;;;0.90;0.52;;;;;;;;;;5018679;28;20128;-81
2022/06/25 06:32:15;;;;;;;2.22;0.45;;;;;;;;;;5036854;28;20547;-82
2022/06/25 06:34:42;;;;;;;0.60;0.60;;;;;;;;;;5035582;28;20069;-82
2022/06/25 06:37:07;;;;;;;0.68;0.43;;;;;;;;;;5036378;28;20101;-83
2022/06/25 06:39:33;;;;;;;0.70;0.50;;;;;;;;;;5059276;23;20072;-87
2022/06/25 06:41:58;;;;;;;1.75;0.57;;;;;;;;;;5065352;28;20041;-85
2022/06/25 06:44:24;;;;;;;0.63;0.50;;;;;;;;;;5039834;28;20537;-87
2022/06/25 06:46:49;;;;;;;0.40;0.40;;;;;;;;;;5058213;28;20047;-87
2022/06/25 06:49:15;;;;;;;0.47;0.47;;;;;;;;;;5058527;28;20653;-86
2022/06/25 06:51:40;;;;;;;0.70;0.47;;;;;;;;;;5058394;28;20072;-87
2022/06/25 06:54:06;;;;;;;1.25;0.50;;;;;;;;;;5056632;28;20068;-86
2022/06/25 06:56:31;;;;;;;0.93;0.55;;;;;;;;;;5058018;28;20037;-86
2022/06/25 06:58:57;;;;;;;0.73;0.70;;;;;;;;;;5058172;28;20075;-86
2022/06/25 07:01:23;;;;;;;1.02;0.57;;;;;;;;;;5057779;28;20045;-87
2022/06/25 07:03:48;;;;;;;1.95;0.45;;;;;;;;;;5062599;28;20036;-87
2022/06/25 07:06:14;;;;;;;1.33;0.60;;;;;;;;;;5058808;28;20096;-86
2022/06/25 07:08:39;;;;;;;2.00;0.68;;;;;;;;;;5068599;28;20021;-86
2022/06/25 07:11:28;;;;;;;0.80;0.47;;;;;;;;;;5066034;28;20041;-86
2022/06/25 07:13:53;;;;;;;0.70;0.50;;;;;;;;;;5059602;28;20036;-86
2022/06/25 07:16:18;;;;;;;1.17;0.50;;;;;;;;;;5059826;28;20040;-85
2022/06/25 07:18:44;;;;;;;1.75;0.50;;;;;;;;;;5059850;28;20041;-88
2022/06/25 07:21:12;;;;;;;3.05;0.57;;;;;;;;;;5061925;28;20711;-88
2022/06/25 07:23:37;;;;;;;0.52;0.43;;;;;;;;;;5044409;28;20025;-88
2022/06/25 07:26:03;;;;;;;0.98;0.50;;;;;;;;;;5060967;28;20040;-86
2022/06/25 07:28:28;;;;;;;1.48;0.50;;;;;;;;;;5061518;28;20068;-86
2022/06/25 07:30:54;;;;;;;1.35;0.70;;;;;;;;;;5061251;28;20040;-87
2022/06/25 07:33:19;;;;;;;0.73;0.40;;;;;;;;;;5062615;28;20033;-87
2022/06/25 07:35:45;;;;;;;1.73;0.50;;;;;;;;;;5061402;28;20457;-86
2022/06/25 07:38:10;;;;;;;2.53;0.60;;;;;;;;;;5059168;28;20041;-88
2022/06/25 07:40:36;;;;;;;0.57;0.40;;;;;;;;;;5060285;28;20104;-89
2022/06/25 07:43:02;;;;;;;2.55;0.50;;;;;;;;;;5043007;28;20048;-87
2022/06/25 07:45:27;;;;;;;0.57;0.45;;;;;;;;;;5041537;28;20037;-87
2022/06/25 07:47:53;;;;;;;0.75;0.50;;;;;;;;;;5056743;28;20040;-86
2022/06/25 07:53:03;;;;;;;1.17;0.43;;;;;;;;;;5063304;28;20067;-88
2022/06/25 07:55:28;;;;;;;0.35;0.35;;;;;;;;;;5063298;28;20596;-88
2022/06/25 07:57:54;;;;;;;0.55;0.50;;;;;;;;;;5064039;28;20047;-86
2022/06/25 08:00:19;;;;;;;0.95;0.50;;;;;;;;;;5058182;28;20037;-87
2022/06/25 08:02:45;;;;;;;1.27;0.45;;;;;;;;;;5058185;28;20113;-87
2022/06/25 08:05:10;;;;;;;0.50;0.40;;;;;;;;;;5059635;28;20416;-88
2022/06/25 08:07:36;;;;;;;1.27;0.45;;;;;;;;;;5062196;28;20025;-88
2022/06/25 08:10:02;;;;;;;0.63;0.40;;;;;;;;;;5061189;28;20033;-87
2022/06/25 08:12:28;;;;;;;2.17;0.50;;;;;;;;;;5062092;28;20489;-87
2022/06/25 08:14:53;;;;;;;0.93;0.43;;;;;;;;;;5061345;28;20048;-87
2022/06/25 08:17:19;;;;;;;0.77;0.40;;;;;;;;;;5061938;28;20098;-89
2022/06/25 08:19:44;;;;;;;0.68;0.32;;;;;;;;;;5059993;28;20060;-87
2022/06/25 08:22:09;;;;;;;1.35;0.43;;;;;;;;;;5058729;28;20040;-86
2022/06/25 08:24:35;;;;;;;1.27;0.50;;;;;;;;;;5055162;28;20503;-89
2022/06/25 08:27:00;;;;;;;0.90;0.50;;;;;;;;;;5056044;28;20120;-86
2022/06/25 08:29:26;;;;;;;1.75;0.40;;;;;;;;;;5057190;28;20469;-87
2022/06/25 08:31:53;;;;;;;0.85;0.40;;;;;;;;;;5062058;28;20033;-88
2022/06/25 08:34:19;;;;;;;0.70;0.43;;;;;;;;;;5058367;28;20033;-89
2022/06/25 08:36:44;;;;;;;0.65;0.32;;;;;;;;;;5059013;28;20055;-88
2022/06/25 08:39:10;;;;;;;0.70;0.43;;;;;;;;;;5055803;28;20075;-86
2022/06/25 08:41:36;;;;;;;0.40;0.40;;;;;;;;;;5056948;28;20404;-88
2022/06/25 08:44:01;;;;;;;0.82;0.40;;;;;;;;;;5058053;28;20051;-88
2022/06/25 08:46:28;;;;;;;0.52;0.40;;;;;;;;;;5056635;28;20052;-87
2022/06/25 08:48:56;;;;;;;0.98;0.47;;;;;;;;;;5056592;28;20033;-86
2022/06/25 08:51:27;;;;;;;0.45;0.40;;;;;;;;;;5055888;28;20517;-87
2022/06/25 08:53:54;;;;;;;0.45;0.40;;;;;;;;;;5036309;28;20063;-85
2022/06/25 08:56:19;;;;;;;2.42;0.60;;;;;;;;;;5055052;28;20044;-86
2022/06/25 08:58:45;;;;;;;1.13;0.43;;;;;;;;;;5058752;28;20075;-89
2022/06/25 09:01:11;;;;;;;2.00;0.60;;;;;;;;;;5047362;28;20095;-88
2022/06/25 09:03:39;;;;;;;0.60;0.43;;;;;;;;;;5043417;28;20032;-88
2022/06/25 09:06:15;;;;;;;1.27;0.85;;;;;;;;;;5059830;28;20033;-87
2022/06/25 09:08:42;;;;;;;0.45;0.30;;;;;;;;;;5059722;28;20033;-86
2022/06/25 09:11:08;;;;;;;0.47;0.40;;;;;;;;;;5058243;28;20033;-87
2022/06/25 09:13:34;;;;;;;1.52;0.57;;;;;;;;;;5059010;28;20116;-87
2022/06/25 09:16:00;;;;;;;0.40;0.40;;;;;;;;;;5059164;28;20064;-87
2022/06/25 09:18:25;;;;;;;0.70;0.70;;;;;;;;;;5060682;28;20041;-87
2022/06/25 09:20:59;;;;;;;0.90;0.40;;;;;;;;;;5059345;28;20028;-85
2022/06/25 09:23:33;;;;;;;0.45;0.40;;;;;;;;;;5058512;28;20033;-85
2022/06/25 09:26:10;;;;;;;2.20;0.50;;;;;;;;;;5042202;28;20505;-85
2022/06/25 09:28:44;;;;;;;0.77;0.47;;;;;;;;;;5059195;28;20110;-87
2022/06/25 09:31:09;;;;;;;0.80;0.45;;;;;;;;;;5058498;28;20028;-88
2022/06/25 09:33:38;;;;;;;2.05;0.50;;;;;;;;;;5058997;28;20492;-85
2022/06/25 09:36:06;;;;;;;2.63;0.57;;;;;;;;;;5061169;28;20037;-85
2022/06/25 09:38:32;;;;;;;0.68;0.50;;;;;;;;;;5062272;28;20033;-87
2022/06/25 09:40:59;;;;;;;0.43;0.40;;;;;;;;;;5062316;28;20036;-87
2022/06/25 09:43:27;;;;;;;1.00;0.60;;;;;;;;;;5060512;28;20025;-88
2022/06/25 09:46:01;;;;;;;1.50;0.57;;;;;;;;;;5058853;28;20399;-88
2022/06/25 09:48:28;;;;;;;0.45;0.40;;;;;;;;;;5060098;28;20044;-88
2022/06/25 09:51:12;;;;;;;0.40;0.40;;;;;;;;;;5060212;28;20033;-88
2022/06/25 09:53:53;;;;;;;0.50;0.50;;;;;;;;;;5058523;28;20094;-88
2022/06/25 09:56:19;;;;;;;0.65;0.60;;;;;;;;;;5057681;28;20056;-86
2022/06/25 09:58:46;;;;;;;0.40;0.40;;;;;;;;;;5060178;28;20041;-86
2022/06/25 10:01:18;;;;;;;0.95;0.45;;;;;;;;;;5060518;28;20443;-86
2022/06/25 10:03:47;;;;;;;0.55;0.50;;;;;;;;;;5059492;28;20037;-91
2022/06/25 10:06:14;;;;;;;1.40;0.50;;;;;;;;;;5056462;28;20062;-87
2022/06/25 10:08:42;;;;;;;0.85;0.60;;;;;;;;;;5066853;28;20033;-88
2022/06/25 10:11:09;;;;;;;0.75;0.40;;;;;;;;;;5061921;28;20033;-87
2022/06/25 10:13:35;;;;;;;1.38;0.60;;;;;;;;;;5060944;28;20048;-89
2022/06/25 10:16:01;;;;;;;0.45;0.45;;;;;;;;;;5059773;28;20029;-90
2022/06/25 10:18:28;;;;;;;0.50;0.50;;;;;;;;;;5059305;28;20037;-88
2022/06/25 10:20:54;;;;;;;0.73;0.70;;;;;;;;;;5062067;28;20037;-88
2022/06/25 10:23:21;;;;;;;0.50;0.50;;;;;;;;;;5059262;28;20082;-89
2022/06/25 10:25:47;;;;;;;0.93;0.60;;;;;;;;;;5042678;28;20037;-89
2022/06/25 10:28:15;;;;;;;0.80;0.50;;;;;;;;;;5059897;28;20033;-88
2022/06/25 10:30:48;;;;;;;0.85;0.50;;;;;;;;;;5058540;28;20033;-88
2022/06/25 10:33:17;;;;;;;0.90;0.65;;;;;;;;;;5059536;28;20427;-90
2022/06/25 10:35:44;;;;;;;1.33;0.55;;;;;;;;;;5060637;28;20041;-88
2022/06/25 10:38:16;;;;;;;0.50;0.50;;;;;;;;;;5060462;28;20032;-87
2022/06/25 10:40:59;;;;;;;0.43;0.43;;;;;;;;;;5061827;28;20052;-87
2022/06/25 10:43:47;;;;;;;0.65;0.50;;;;;;;;;;5043151;28;20037;-89
2022/06/25 10:46:20;;;;;;;0.50;0.50;;;;;;;;;;5058565;28;20045;-88
2022/06/25 10:49:02;;;;;;;0.40;0.40;;;;;;;;;;5062280;28;20105;-87
2022/06/25 10:51:34;;;;;;;1.50;0.57;;;;;;;;;;5060515;28;20033;-88
2022/06/25 10:54:02;;;;;;;0.93;0.60;;;;;;;;;;5058116;28;20029;-90
2022/06/25 10:56:43;;;;;;;1.58;0.55;;;;;;;;;;4989466;28;20045;-89
2022/06/25 10:59:09;;;;;;;0.52;0.50;;;;;;;;;;5054096;28;20116;-90
2022/06/25 11:01:35;;;;;;;0.40;0.40;;;;;;;;;;5058142;28;20076;-88
2022/06/25 11:04:03;;;;;;;1.17;0.50;;;;;;;;;;5057234;28;20040;-87
2022/06/25 11:06:38;;;;;;;0.60;0.60;;;;;;;;;;5059175;28;20489;-87
2022/06/25 11:09:13;;;;;;;0.60;0.60;;;;;;;;;;5060081;28;20090;-87
2022/06/25 11:11:40;;;;;;;1.95;0.60;;;;;;;;;;5043152;28;20091;-87
2022/06/25 11:14:22;;;;;;;0.55;0.55;;;;;;;;;;5058884;28;20055;-87
2022/06/25 11:16:48;;;;;;;0.90;0.65;;;;;;;;;;5062388;28;20048;-88
2022/06/25 11:19:14;;;;;;;2.17;0.70;;;;;;;;;;5060284;28;20060;-89
2022/06/25 11:21:42;;;;;;;1.13;0.60;;;;;;;;;;5059816;28;20397;-89
2022/06/25 11:24:23;;;;;;;0.65;0.65;;;;;;;;;;5060362;28;20033;-87
2022/06/25 11:29:46;;;;;;;1.15;0.57;;;;;;;;;;5059486;28;20370;-87
2022/06/25 11:32:32;;;;;;;0.52;0.50;;;;;;;;;;5060019;28;20057;-89
2022/06/25 11:34:59;;;;;;;0.93;0.68;;;;;;;;;;5062809;28;20040;-87
2022/06/25 11:37:26;;;;;;;0.60;0.60;;;;;;;;;;5064402;28;20033;-88
2022/06/25 11:39:52;;;;;;;1.35;0.65;;;;;;;;;;5058628;28;20055;-87
2022/06/25 11:42:19;;;;;;;0.82;0.60;;;;;;;;;;5058027;28;20448;-87
2022/06/25 11:44:50;;;;;;;1.58;0.70;;;;;;;;;;5058662;28;20564;-87
2022/06/25 11:47:19;;;;;;;0.47;0.47;;;;;;;;;;5042262;28;20039;-87
2022/06/25 11:49:46;;;;;;;0.75;0.50;;;;;;;;;;5059610;28;20104;-87
2022/06/25 11:52:12;;;;;;;1.17;0.60;;;;;;;;;;5058814;28;20036;-86
2022/06/25 11:54:40;;;;;;;2.45;0.85;;;;;;;;;;5060411;28;20060;-87
2022/06/25 11:57:08;;;;;;;1.55;0.70;;;;;;;;;;5060149;28;20044;-88
2022/06/25 11:59:36;;;;;;;1.10;0.60;;;;;;;;;;5061879;28;20029;-87
2022/06/25 12:02:04;;;;;;;0.70;0.70;;;;;;;;;;5057840;28;20040;-86
2022/06/25 12:04:31;;;;;;;0.88;0.50;;;;;;;;;;5058153;28;20119;-85
2022/06/25 12:06:58;;;;;;;0.50;0.50;;;;;;;;;;5057889;28;20413;-86
2022/06/25 12:09:24;;;;;;;1.95;0.55;;;;;;;;;;5056664;28;20098;-87
2022/06/25 12:11:53;;;;;;;0.82;0.50;;;;;;;;;;5055926;28;20037;-87
2022/06/25 12:14:28;;;;;;;2.60;0.60;;;;;;;;;;5056737;28;20070;-87
2022/06/25 12:16:54;;;;;;;0.50;0.50;;;;;;;;;;5057216;28;20064;-88
2022/06/25 12:19:21;;;;;;;1.10;0.60;;;;;;;;;;5055611;28;20052;-87
2022/06/25 12:21:47;;;;;;;0.80;0.60;;;;;;;;;;5054676;28;20036;-88
2022/06/25 12:24:15;;;;;;;1.00;0.70;;;;;;;;;;5055178;28;20040;-88
2022/06/25 12:26:51;;;;;;;1.75;0.55;;;;;;;;;;5065387;28;20041;-88
2022/06/25 12:29:23;;;;;;;1.63;0.60;;;;;;;;;;5057015;28;20029;-86
2022/06/25 12:31:58;;;;;;;0.73;0.52;;;;;;;;;;5076530;28;20021;-87
2022/06/25 12:34:25;;;;;;;3.60;0.70;;;;;;;;;;5061016;28;20047;-87
2022/06/25 12:36:52;;;;;;;0.80;0.60;;;;;;;;;;5058599;28;20061;-87
2022/06/25 12:39:35;;;;;;;0.60;0.60;;;;;;;;;;5079183;23;20033;-89
2022/06/25 12:42:06;;;;;;;0.63;0.40;;;;;;;;;;5040738;28;20037;-87
2022/06/25 12:44:37;;;;;;;0.43;0.43;;;;;;;;;;5039633;28;20033;-88
2022/06/25 12:47:07;;;;;;;0.73;0.65;;;;;;;;;;5021869;28;20037;-87
2022/06/25 12:49:46;;;;;;;0.68;0.60;;;;;;;;;;5039102;28;20037;-86
2022/06/25 12:52:14;;;;;;;0.63;0.40;;;;;;;;;;5039976;28;20100;-87
2022/06/25 12:54:50;;;;;;;0.60;0.50;;;;;;;;;;5038829;28;20123;-87
2022/06/25 12:57:24;;;;;;;0.68;0.65;;;;;;;;;;5040125;28;20040;-87
2022/06/25 12:59:50;;;;;;;2.75;0.50;;;;;;;;;;5039338;28;20033;-87
2022/06/25 13:02:15;;;;;;;0.50;0.50;;;;;;;;;;5040120;28;20030;-87
2022/06/25 13:04:42;;;;;;;0.52;0.45;;;;;;;;;;5039596;28;20040;-87
2022/06/25 13:07:10;;;;;;;0.70;0.60;;;;;;;;;;5039334;28;20023;-87
2022/06/25 13:09:35;;;;;;;0.40;0.40;;;;;;;;;;5054865;28;20034;-87
2022/06/25 13:12:01;;;;;;;1.00;0.50;;;;;;;;;;5037833;28;20029;-88
2022/06/25 13:14:27;;;;;;;0.45;0.45;;;;;;;;;;5038703;28;20038;-87
2022/06/25 13:16:52;;;;;;;0.95;0.50;;;;;;;;;;5039489;28;20033;-86
2022/06/25 13:19:18;;;;;;;0.77;0.45;;;;;;;;;;5038572;28;20030;-86
2022/06/25 13:21:44;;;;;;;1.27;0.50;;;;;;;;;;5055434;28;20089;-87
2022/06/25 13:24:09;;;;;;;2.60;0.60;;;;;;;;;;5037949;28;20045;-86
2022/06/25 13:26:35;;;;;;;0.85;0.50;;;;;;;;;;5038276;28;20022;-86
2022/06/25 13:29:00;;;;;;;1.77;0.52;;;;;;;;;;5038639;28;20029;-86
2022/06/25 13:31:26;;;;;;;0.50;0.50;;;;;;;;;;5037653;28;20106;-87
2022/06/25 13:33:52;;;;;;;1.67;0.50;;;;;;;;;;5037995;28;20041;-86
2022/06/25 13:36:17;;;;;;;0.90;0.50;;;;;;;;;;5038916;28;20029;-86
2022/06/25 13:38:43;;;;;;;0.60;0.50;;;;;;;;;;5038091;28;20045;-86
2022/06/25 13:41:08;;;;;;;1.45;0.50;;;;;;;;;;5039363;28;20021;-86
2022/06/25 13:43:34;;;;;;;0.80;0.60;;;;;;;;;;5038895;28;20042;-86
2022/06/25 13:45:59;;;;;;;0.73;0.50;;;;;;;;;;5038721;28;20096;-85
2022/06/25 13:48:25;;;;;;;0.98;0.52;;;;;;;;;;5039600;28;20033;-86
2022/06/25 13:50:50;;;;;;;0.90;0.60;;;;;;;;;;5037803;28;20049;-86
2022/06/25 13:53:16;;;;;;;0.55;0.50;;;;;;;;;;5054048;28;20025;-86
2022/06/25 13:55:41;;;;;;;2.05;0.60;;;;;;;;;;5039110;28;20044;-86
2022/06/25 13:58:07;;;;;;;1.00;0.70;;;;;;;;;;5039325;28;20052;-86
2022/06/25 14:00:32;;;;;;;0.60;0.50;;;;;;;;;;5038873;28;20049;-85
2022/06/25 14:02:58;;;;;;;1.27;0.60;;;;;;;;;;5038124;28;20045;-87
2022/06/25 14:05:23;;;;;;;0.52;0.52;;;;;;;;;;5038459;28;20104;-86
2022/06/25 14:07:49;;;;;;;0.70;0.50;;;;;;;;;;5039110;28;20056;-86
2022/06/25 14:10:16;;;;;;;0.60;0.50;;;;;;;;;;5040003;28;20027;-87
2022/06/25 14:12:42;;;;;;;2.85;0.60;;;;;;;;;;5054705;28;20132;-86
2022/06/25 14:15:08;;;;;;;0.82;0.60;;;;;;;;;;5038146;28;20123;-86
2022/06/25 14:17:33;;;;;;;0.60;0.40;;;;;;;;;;5038764;28;20398;-86
2022/06/25 14:20:00;;;;;;;0.50;0.50;;;;;;;;;;5036858;28;20037;-86
2022/06/25 14:22:25;;;;;;;1.95;0.50;;;;;;;;;;5041987;28;20387;-87
2022/06/25 14:27:35;;;;;;;0.60;0.45;;;;;;;;;;5042554;28;20036;-86
2022/06/25 14:30:01;;;;;;;0.68;0.50;;;;;;;;;;5042748;28;20026;-86
2022/06/25 14:32:26;;;;;;;0.90;0.50;;;;;;;;;;5043354;28;20044;-85
2022/06/25 14:34:52;;;;;;;0.40;0.40;;;;;;;;;;5042080;28;20041;-85
2022/06/25 14:42:46;;;;;;;0.50;0.50;;;;;;;;;;5041727;28;20029;-87
2022/06/25 14:45:12;;;;;;;0.50;0.50;;;;;;;;;;5041298;28;20041;-87
2022/06/25 14:47:37;;;;;;;0.80;0.60;;;;;;;;;;5043005;28;20021;-87
2022/06/25 14:50:04;;;;;;;0.75;0.40;;;;;;;;;;5042367;28;20445;-85
2022/06/25 14:52:29;;;;;;;0.35;0.30;;;;;;;;;;5041620;28;20053;-86
2022/06/25 14:54:55;;;;;;;0.85;0.40;;;;;;;;;;5039751;28;20153;-84
2022/06/25 14:57:20;;;;;;;4.35;0.40;;;;;;;;;;5041220;28;20045;-85
2022/06/25 14:59:46;;;;;;;0.40;0.40;;;;;;;;;;5041089;28;20022;-85
2022/06/25 15:02:11;;;;;;;1.02;0.50;;;;;;;;;;5039730;28;20060;-85
2022/06/25 15:04:37;;;;;;;0.45;0.35;;;;;;;;;;5041412;28;20029;-85
2022/06/25 15:07:02;;;;;;;1.05;0.40;;;;;;;;;;5040564;28;20037;-85
2022/06/25 15:09:28;;;;;;;2.45;0.60;;;;;;;;;;5042086;28;20069;-84
2022/06/25 15:11:54;;;;;;;2.65;0.57;;;;;;;;;;5040982;28;20037;-84